Time;durP1;ratioP1;P1;durP2;ratioP2;P2;SDS_P1;SDS_P2;PMS_P1;PMS_P2;Temp;Humidity;BMP_temperature;BMP_pressure;BME280_temperature;BME280_humidity;BME280_pressure;Samples;Min_cycle;Max_cycle;Signal;HPM_P1;HPM_P2
2020/12/11 00:00:51;;;;;;;72.40;43.10;;;;;;;3.05;77.40;99440.81;2882963;82;21604;-63
2020/12/11 00:04:55;;;;;;;67.80;44.25;;;;;;;3.04;77.46;99452.27;2883411;82;21170;-66
2020/12/11 00:08:58;;;;;;;79.37;49.40;;;;;;;3.04;77.34;99453.09;2860160;82;21192;-64
2020/12/11 00:13:03;;;;;;;77.25;40.98;;;;;;;3.04;77.42;99449.64;2874453;82;21584;-64
2020/12/11 00:17:07;;;;;;;66.93;42.27;;;;;;;3.02;77.46;99450.22;2868727;82;22082;-64
2020/12/11 00:21:12;;;;;;;82.78;43.17;;;;;;;3.06;77.66;99453.02;2882572;82;21125;-64
2020/12/11 00:25:15;;;;;;;63.55;40.60;;;;;;;3.05;77.42;99456.58;2868631;82;21149;-65
2020/12/11 00:29:18;;;;;;;81.95;44.98;;;;;;;3.03;77.70;99450.09;2858446;82;21153;-63
2020/12/11 00:33:26;;;;;;;72.55;42.17;;;;;;;3.03;77.58;99451.90;2854381;83;21685;-64
2020/12/11 00:37:29;;;;;;;64.45;39.70;;;;;;;3.05;77.59;99452.64;2854419;82;21159;-66
2020/12/11 00:41:32;;;;;;;64.97;41.10;;;;;;;3.06;77.96;99448.61;2854393;83;22233;-65
2020/12/11 00:45:35;;;;;;;76.75;40.50;;;;;;;3.15;77.84;99457.70;2854405;83;21149;-66
2020/12/11 00:49:38;;;;;;;74.92;43.10;;;;;;;3.24;77.76;99454.45;2863086;83;21160;-65
2020/12/11 00:53:41;;;;;;;68.42;41.88;;;;;;;3.32;77.34;99463.16;2865147;82;21113;-66
2020/12/11 00:57:44;;;;;;;77.82;41.65;;;;;;;3.37;77.05;99459.75;2871616;81;21202;-65
2020/12/11 01:01:47;;;;;;;70.47;40.28;;;;;;;3.40;77.13;99459.55;2885410;82;21158;-64
2020/12/11 01:05:50;;;;;;;68.85;43.30;;;;;;;3.46;77.03;99458.80;2885589;82;21154;-65
2020/12/11 01:09:53;;;;;;;75.25;48.90;;;;;;;3.54;76.91;99452.09;2885545;82;21592;-66
2020/12/11 01:13:56;;;;;;;77.67;45.67;;;;;;;3.60;76.81;99456.08;2878761;82;21133;-63
2020/12/11 01:17:59;;;;;;;65.75;41.83;;;;;;;3.63;76.40;99455.05;2877802;82;21165;-64
2020/12/11 01:22:04;;;;;;;78.10;45.05;;;;;;;3.61;76.17;99455.14;2846440;82;21153;-64
2020/12/11 01:26:09;;;;;;;74.12;43.25;;;;;;;3.63;76.23;99453.24;2849810;82;21161;-65
2020/12/11 01:30:12;;;;;;;69.80;42.98;;;;;;;3.67;76.23;99454.75;2883488;82;21145;-65
2020/12/11 01:34:15;;;;;;;78.50;44.38;;;;;;;3.68;76.04;99451.17;2844433;83;21185;-64
2020/12/11 01:38:17;;;;;;;66.92;42.35;;;;;;;3.66;76.15;99452.20;2844653;83;21178;-65
2020/12/11 01:42:21;;;;;;;72.32;42.30;;;;;;;3.63;76.12;99451.10;2844435;83;21161;-64
2020/12/11 01:46:27;;;;;;;70.00;42.98;;;;;;;3.57;76.25;99448.41;2844496;83;21128;-65
2020/12/11 01:50:30;;;;;;;75.65;45.83;;;;;;;3.57;76.71;99441.38;2844724;83;21487;-67
2020/12/11 01:54:33;;;;;;;65.85;41.15;;;;;;;3.53;76.41;99433.28;2844393;83;21152;-63
2020/12/11 01:58:39;;;;;;;77.55;44.48;;;;;;;3.46;76.66;99437.77;2844737;83;21145;-66
2020/12/11 02:02:44;;;;;;;;;;;;;;;3.41;76.79;99431.48;2847173;83;21148;-65
2020/12/11 02:06:49;;;;;;;65.67;44.42;;;;;;;3.41;77.03;99432.80;2844603;83;20215;-66
2020/12/11 02:10:52;;;;;;;85.10;46.95;;;;;;;3.41;77.11;99432.80;2844585;83;21137;-64
2020/12/11 02:14:56;;;;;;;77.03;40.25;;;;;;;3.42;77.05;99430.05;2844731;83;21157;-64
2020/12/11 02:18:58;;;;;;;72.42;44.08;;;;;;;3.42;77.06;99427.91;2844380;83;21144;-65
2020/12/11 02:23:01;;;;;;;76.87;43.48;;;;;;;3.42;77.12;99423.48;2844318;83;21121;-63
2020/12/11 02:27:04;;;;;;;74.22;41.42;;;;;;;3.40;76.88;99420.11;2844444;83;21148;-62
2020/12/11 02:31:07;;;;;;;68.67;41.73;;;;;;;3.41;77.12;99414.40;2844478;83;21180;-63
2020/12/11 02:35:12;;;;;;;70.50;40.03;;;;;;;3.40;77.09;99409.59;2844287;82;21705;-65
2020/12/11 02:39:15;;;;;;;57.93;36.48;;;;;;;3.36;76.91;99399.41;2844585;83;21156;-63
2020/12/11 02:43:19;;;;;;;66.82;41.02;;;;;;;3.31;76.70;99397.53;2844549;83;21137;-65
2020/12/11 02:47:22;;;;;;;64.03;37.35;;;;;;;3.24;76.59;99391.83;2844056;83;21136;-66
2020/12/11 02:51:25;;;;;;;65.90;39.58;;;;;;;3.16;76.71;99384.48;2841309;83;21137;-65
2020/12/11 02:55:28;;;;;;;61.65;33.73;;;;;;;3.12;76.80;99389.53;2841289;83;21165;-64
2020/12/11 02:59:32;;;;;;;50.85;35.30;;;;;;;3.13;77.00;99385.97;2841283;83;21105;-63
2020/12/11 03:03:34;;;;;;;65.57;34.23;;;;;;;3.12;76.96;99389.53;2841056;83;21193;-64
2020/12/11 03:07:37;;;;;;;68.20;37.10;;;;;;;3.10;76.78;99394.91;2840962;83;21121;-63
2020/12/11 03:11:40;;;;;;;60.40;34.53;;;;;;;3.06;76.81;99389.95;2841324;83;21148;-63
2020/12/11 03:15:43;;;;;;;69.40;38.65;;;;;;;3.08;77.14;99397.26;2841027;83;21141;-65
2020/12/11 03:19:46;;;;;;;69.58;37.08;;;;;;;3.10;76.94;99388.80;2841433;83;21096;-64
2020/12/11 03:23:49;;;;;;;62.00;38.48;;;;;;;3.09;77.07;99377.92;2841117;83;21141;-65
2020/12/11 03:27:52;;;;;;;66.60;37.08;;;;;;;3.13;77.00;99377.63;2841407;83;21158;-65
2020/12/11 03:31:55;;;;;;;56.92;37.60;;;;;;;3.18;76.85;99379.10;2841449;83;21153;-63
2020/12/11 03:35:58;;;;;;;68.37;39.88;;;;;;;3.17;76.73;99375.65;2841943;83;21186;-64
2020/12/11 03:40:01;;;;;;;54.88;33.13;;;;;;;3.16;76.51;99377.91;2841190;83;21141;-64
2020/12/11 03:44:04;;;;;;;59.25;36.65;;;;;;;3.09;76.49;99369.58;2841496;83;21125;-64
2020/12/11 03:48:06;;;;;;;60.58;37.23;;;;;;;3.08;76.93;99370.98;2841586;83;21587;-65
2020/12/11 03:52:10;;;;;;;68.95;40.45;;;;;;;3.02;76.74;99371.39;2844681;83;21391;-67
2020/12/11 03:56:14;;;;;;;60.40;34.35;;;;;;;2.93;77.01;99365.77;2844777;83;21152;-64
2020/12/11 04:00:17;;;;;;;60.90;35.88;;;;;;;2.91;77.18;99366.34;2844857;83;21140;-65
2020/12/11 04:04:20;;;;;;;61.42;37.93;;;;;;;2.91;77.42;99369.45;2845045;83;21108;-65
2020/12/11 04:08:23;;;;;;;55.40;33.60;;;;;;;2.88;77.33;99360.47;2844884;83;21121;-65
2020/12/11 04:12:26;;;;;;;56.13;34.15;;;;;;;2.88;77.45;99365.23;2844557;82;21157;-65
2020/12/11 04:16:29;;;;;;;66.25;38.80;;;;;;;2.87;77.76;99362.23;2819593;82;21171;-63
2020/12/11 04:20:33;;;;;;;66.82;37.78;;;;;;;2.94;77.79;99366.63;2807117;84;21154;-63
2020/12/11 04:24:35;;;;;;;66.40;36.58;;;;;;;2.92;77.66;99356.20;2807283;84;21158;-64
2020/12/11 04:28:38;;;;;;;57.35;37.70;;;;;;;2.96;77.64;99360.34;2806635;84;21162;-63
2020/12/11 04:32:41;;;;;;;77.45;41.23;;;;;;;2.96;77.63;99359.03;2806958;84;21162;-63
2020/12/11 04:36:44;;;;;;;66.45;39.45;;;;;;;2.99;77.95;99360.14;2806952;84;21162;-63
2020/12/11 04:40:47;;;;;;;67.82;41.63;;;;;;;3.07;77.81;99363.58;2806977;84;21755;-65
2020/12/11 04:44:51;;;;;;;57.80;37.38;;;;;;;3.04;77.49;99361.62;2807219;84;21135;-65
2020/12/11 04:48:56;;;;;;;65.10;38.78;;;;;;;2.98;77.58;99354.52;2807265;83;21167;-64
2020/12/11 04:53:00;;;;;;;72.92;43.58;;;;;;;2.97;77.78;99352.83;2807827;84;21167;-64
2020/12/11 04:57:06;;;;;;;68.95;38.88;;;;;;;3.00;77.80;99355.25;2905688;81;21604;-64
2020/12/11 05:01:11;;;;;;;80.83;44.80;;;;;;;2.99;77.58;99350.94;2845425;83;21156;-66
2020/12/11 05:05:16;;;;;;;74.42;45.08;;;;;;;3.02;77.58;99346.42;2845198;83;21132;-66
2020/12/11 05:09:20;;;;;;;69.58;44.90;;;;;;;3.03;77.63;99352.05;2845610;83;21124;-66
2020/12/11 05:13:25;;;;;;;80.67;46.77;;;;;;;2.91;77.49;99349.27;2845332;83;21156;-65
2020/12/11 05:17:33;;;;;;;73.80;48.58;;;;;;;2.88;78.01;99345.53;2845545;83;21128;-66
2020/12/11 05:21:38;;;;;;;82.75;50.43;;;;;;;2.90;78.19;99344.95;2844741;83;21654;-65
2020/12/11 05:25:40;;;;;;;69.72;43.17;;;;;;;2.93;78.33;99343.44;2845344;83;21168;-65
2020/12/11 05:29:43;;;;;;;78.62;42.58;;;;;;;2.91;78.23;99342.70;2845622;83;21598;-66
2020/12/11 05:34:13;;;;;;;73.65;42.13;;;;;;;2.90;78.20;99343.64;2845822;83;21148;-64
2020/12/11 05:38:16;;;;;;;82.37;43.68;;;;;;;2.87;78.33;99347.79;2845330;83;21164;-65
2020/12/11 05:42:19;;;;;;;74.50;44.67;;;;;;;2.86;78.47;99348.73;2845330;83;21120;-65
2020/12/11 05:46:31;;;;;;;56.60;38.30;;;;;;;2.82;78.86;99349.39;2845456;83;22202;-65
2020/12/11 05:50:34;;;;;;;67.95;36.80;;;;;;;2.83;78.83;99348.45;2827394;83;21176;-64
2020/12/11 05:54:42;;;;;;;71.45;39.78;;;;;;;2.82;78.84;99343.31;2817659;83;21633;-63
2020/12/11 05:58:45;;;;;;;63.73;33.33;;;;;;;2.80;79.07;99342.58;2817901;84;21164;-65
2020/12/11 06:02:50;;;;;;;66.80;40.45;;;;;;;2.82;78.93;99335.44;2817413;84;21598;-66
2020/12/11 06:06:57;;;;;;;67.53;39.23;;;;;;;2.82;79.04;99340.20;2795642;85;21201;-65
2020/12/11 06:11:02;;;;;;;67.95;39.50;;;;;;;2.87;78.87;99336.45;2817987;84;21423;-66
2020/12/11 06:15:35;;;;;;;63.70;37.93;;;;;;;2.88;78.79;99328.45;2795542;85;21161;-65
2020/12/11 06:19:41;;;;;;;67.78;35.85;;;;;;;2.82;78.56;99321.81;2817639;84;21145;-66
2020/12/11 06:23:44;;;;;;;58.30;37.03;;;;;;;2.74;79.01;99325.42;2817672;83;21608;-65
2020/12/11 06:27:47;;;;;;;87.65;46.60;;;;;;;2.76;79.43;99329.28;2795252;85;21552;-64
2020/12/11 06:31:51;;;;;;;68.75;42.15;;;;;;;2.75;79.55;99324.94;2817617;83;21149;-64
2020/12/11 06:35:59;;;;;;;71.45;44.23;;;;;;;2.87;79.61;99320.20;2795165;85;21207;-66
2020/12/11 06:40:03;;;;;;;66.37;41.53;;;;;;;2.98;79.33;99334.81;2817998;83;21121;-65
2020/12/11 06:44:15;;;;;;;71.67;44.08;;;;;;;3.09;78.71;99335.88;2817596;83;21152;-65
2020/12/11 06:48:20;;;;;;;77.95;44.65;;;;;;;3.06;78.48;99334.31;2795454;85;21169;-64
2020/12/11 06:52:28;;;;;;;70.45;43.83;;;;;;;3.08;78.70;99332.88;2848275;83;21132;-65
2020/12/11 06:56:43;;;;;;;74.60;42.35;;;;;;;3.08;78.54;99320.59;2847918;83;21484;-65
2020/12/11 07:00:54;;;;;;;85.35;45.35;;;;;;;3.06;78.62;99321.63;2868091;82;21131;-65
2020/12/11 07:04:58;;;;;;;88.03;44.98;;;;;;;3.03;78.46;99316.58;2866670;82;30384;-65
2020/12/11 07:09:05;;;;;;;72.80;41.48;;;;;;;2.93;78.77;99316.34;2877155;82;21179;-64
2020/12/11 07:13:13;;;;;;;73.25;48.45;;;;;;;2.88;78.90;99321.89;2876685;82;21131;-64
2020/12/11 07:17:29;;;;;;;353.90;202.47;;;;;;;2.82;79.12;99323.62;2835714;83;21141;-65
2020/12/11 07:21:36;;;;;;;145.43;85.25;;;;;;;2.77;79.25;99317.83;2835514;83;21184;-66
2020/12/11 07:25:39;;;;;;;102.42;66.80;;;;;;;2.77;79.37;99311.27;2836574;83;21121;-65
2020/12/11 07:29:50;;;;;;;92.15;57.62;;;;;;;2.69;79.50;99308.64;2836243;83;21145;-64
2020/12/11 07:33:53;;;;;;;173.93;121.33;;;;;;;2.65;79.87;99302.36;2836307;83;21157;-66
2020/12/11 07:37:57;;;;;;;150.47;104.92;;;;;;;2.66;80.04;99304.91;2836577;83;21153;-64
2020/12/11 07:42:04;;;;;;;89.25;53.60;;;;;;;2.69;80.12;99300.77;2836351;83;21622;-63
2020/12/11 07:46:10;;;;;;;129.97;84.55;;;;;;;2.68;79.90;99303.51;2836265;83;21717;-65
2020/12/11 07:50:13;;;;;;;100.62;61.88;;;;;;;2.67;80.06;99297.89;2836297;83;21148;-63
2020/12/11 07:54:18;;;;;;;119.02;69.67;;;;;;;2.70;80.25;99292.43;2833166;83;21161;-64
2020/12/11 07:58:24;;;;;;;120.47;71.42;;;;;;;2.75;80.41;99290.80;2833163;83;21165;-64
2020/12/11 08:02:28;;;;;;;101.67;58.47;;;;;;;2.91;80.18;99291.48;2836452;83;21177;-64
2020/12/11 08:06:32;;;;;;;119.77;68.05;;;;;;;2.91;80.18;99291.48;2836658;83;21840;-64
2020/12/11 08:10:40;;;;;;;113.37;64.75;;;;;;;2.91;80.03;99282.28;2836533;83;21137;-65
2020/12/11 08:14:44;;;;;;;82.22;46.55;;;;;;;2.93;80.00;99279.08;2836017;83;21165;-64
2020/12/11 08:18:47;;;;;;;101.67;64.47;;;;;;;2.97;79.98;99280.58;2811448;83;21179;-64
2020/12/11 08:22:51;;;;;;;76.75;49.20;;;;;;;2.97;80.01;99267.45;2807005;84;21138;-64
2020/12/11 08:26:55;;;;;;;99.45;64.90;;;;;;;2.99;79.77;99259.45;2806963;84;21199;-62
2020/12/11 08:31:21;;;;;;;96.70;54.67;;;;;;;3.04;79.83;99258.66;2807064;84;21574;-64
2020/12/11 08:35:24;;;;;;;104.20;57.73;;;;;;;3.07;79.87;99253.67;2805234;84;21150;-64
2020/12/11 08:39:29;;;;;;;123.90;75.42;;;;;;;3.10;79.77;99242.95;2805286;84;21143;-63
2020/12/11 08:43:42;;;;;;;100.75;57.67;;;;;;;3.14;80.10;99254.94;2806939;84;21174;-63
2020/12/11 08:51:46;;;;;;;82.50;53.65;;;;;;;3.39;80.16;99261.17;2806660;83;21155;-67
2020/12/11 08:55:49;;;;;;;87.53;55.30;;;;;;;3.50;79.59;99263.89;2807424;81;21131;-64
2020/12/11 08:59:52;;;;;;;74.45;46.23;;;;;;;3.55;79.51;99264.44;2807457;82;21171;-63
2020/12/11 09:03:55;;;;;;;77.17;50.38;;;;;;;3.60;79.19;99263.27;2807237;84;21162;-64
2020/12/11 09:07:59;;;;;;;85.83;46.75;;;;;;;3.54;78.80;99258.81;2807211;84;21179;-66
2020/12/11 09:12:02;;;;;;;78.02;48.48;;;;;;;3.54;79.16;99255.33;2806880;83;21174;-63
2020/12/11 09:16:05;;;;;;;93.67;49.90;;;;;;;3.63;79.06;99245.47;2807189;84;21155;-64
2020/12/11 09:20:09;;;;;;;80.10;45.33;;;;;;;3.69;78.99;99250.78;2806873;83;21629;-68
2020/12/11 09:24:12;;;;;;;87.17;52.75;;;;;;;3.72;78.89;99238.73;2806947;84;21175;-65
2020/12/11 09:28:18;;;;;;;80.92;48.73;;;;;;;3.83;78.89;99233.56;2806384;83;21159;-65
2020/12/11 09:32:32;;;;;;;85.25;49.55;;;;;;;3.85;78.36;99228.20;2804053;84;21179;-65
2020/12/11 09:36:27;;;;;;;78.52;49.73;;;;;;;3.89;78.63;99226.17;2802887;84;21107;-66
2020/12/11 09:40:44;;;;;;;85.10;47.58;;;;;;;3.98;78.69;99224.22;2807141;84;21095;-64
2020/12/11 09:44:49;;;;;;;85.30;51.28;;;;;;;4.03;78.06;99219.92;2805522;84;21163;-66
2020/12/11 09:48:51;;;;;;;78.40;44.58;;;;;;;3.96;77.90;99207.70;2805793;84;21147;-63
2020/12/11 09:57:12;;;;;;;89.70;53.33;;;;;;;4.02;78.29;99191.47;2807725;84;21167;-65
2020/12/11 10:01:29;;;;;;;84.03;49.30;;;;;;;4.11;78.23;99185.52;2806822;82;21192;-67
2020/12/11 10:05:31;;;;;;;90.90;51.37;;;;;;;4.20;77.81;99177.92;2754098;86;21206;-66
2020/12/11 10:09:36;;;;;;;78.30;48.30;;;;;;;4.23;77.73;99186.45;2806914;84;21547;-65
2020/12/11 10:13:42;;;;;;;85.42;49.65;;;;;;;4.23;77.43;99192.17;2754055;86;21181;-67
2020/12/11 10:17:44;;;;;;;91.35;51.37;;;;;;;4.21;77.41;99179.60;2806610;84;21180;-66
2020/12/11 10:21:52;;;;;;;79.72;50.58;;;;;;;4.24;77.54;99171.48;2753762;86;21201;-67
2020/12/11 10:25:55;;;;;;;84.67;48.40;;;;;;;4.32;77.58;99164.33;2806478;84;21144;-66
2020/12/11 10:29:58;;;;;;;93.50;53.50;;;;;;;4.33;77.59;99158.97;2754063;86;21145;-66
2020/12/11 10:34:01;;;;;;;84.30;51.65;;;;;;;4.37;77.82;99145.08;2806944;84;21117;-66
2020/12/11 10:38:04;;;;;;;95.90;52.67;;;;;;;4.43;77.70;99140.20;2753984;86;21187;-66
2020/12/11 10:42:07;;;;;;;93.15;48.87;;;;;;;4.57;77.73;99130.43;2862547;81;21157;-66
2020/12/11 10:46:11;;;;;;;70.92;45.88;;;;;;;4.69;78.03;99129.98;2864082;83;21176;-65
2020/12/11 10:50:14;;;;;;;89.85;50.73;;;;;;;4.76;77.48;99117.18;2864293;82;21165;-65
2020/12/11 10:54:17;;;;;;;82.95;56.00;;;;;;;4.86;77.19;99115.04;2864147;82;21160;-66
2020/12/11 10:58:21;;;;;;;82.17;50.63;;;;;;;4.90;76.73;99107.71;2868332;82;21173;-65
2020/12/11 11:02:25;;;;;;;96.20;52.20;;;;;;;4.93;76.83;99095.64;2883411;82;21145;-66
2020/12/11 11:06:32;;;;;;;88.58;57.35;;;;;;;5.00;77.12;99095.52;2884823;82;21125;-64
2020/12/11 11:10:40;;;;;;;103.53;59.77;;;;;;;5.08;76.97;99090.11;2884360;82;21164;-65
2020/12/11 11:18:54;;;;;;;89.15;53.02;;;;;;;5.20;77.07;99085.67;2884455;82;21145;-64
2020/12/11 11:31:12;;;;;;;85.12;51.45;;;;;;;5.41;76.90;99068.64;2884672;82;21196;-65
2020/12/11 11:35:17;;;;;;;83.97;52.13;;;;;;;5.50;77.08;99056.05;2884218;82;21141;-65
2020/12/11 11:39:20;;;;;;;76.33;44.42;;;;;;;5.61;77.00;99050.38;2884987;82;21176;-66
2020/12/11 11:47:46;;;;;;;82.22;47.25;;;;;;;5.77;76.37;99031.48;3064070;77;22511;-63
2020/12/11 11:52:00;;;;;;;80.00;48.68;;;;;;;5.76;76.29;99028.02;3019460;78;21141;-64
2020/12/11 11:55:53;;;;;;;78.65;44.10;;;;;;;5.79;76.07;99026.91;3018054;78;21121;-65
2020/12/11 11:59:56;;;;;;;76.28;49.45;;;;;;;5.84;76.12;99021.62;3018622;78;21102;-64
2020/12/11 12:04:00;;;;;;;68.10;43.63;;;;;;;5.92;76.06;99014.89;3018742;78;21177;-66
2020/12/11 12:08:03;;;;;;;76.95;48.87;;;;;;;5.97;75.83;99016.66;3018699;78;21102;-67
2020/12/11 12:12:05;;;;;;;79.07;49.20;;;;;;;6.01;75.77;99014.14;3016797;78;21125;-66
2020/12/11 12:16:15;;;;;;;69.77;41.35;;;;;;;6.02;75.86;99006.57;3015801;78;21117;-63
2020/12/11 12:20:22;;;;;;;82.10;49.23;;;;;;;6.04;76.15;99005.96;3018387;78;21489;-65
2020/12/11 12:47:50;;;;;;;62.58;39.98;;;;;;;6.29;75.82;98971.73;2967737;79;22562;-63
2020/12/11 12:51:53;;;;;;;72.58;44.15;;;;;;;6.22;76.13;98965.77;2971543;78;21176;-65
2020/12/11 13:00:30;;;;;;;64.62;41.25;;;;;;;6.23;76.38;98963.48;3029178;77;21164;-63
2020/12/11 13:08:35;;;;;;;70.25;39.45;;;;;;;6.25;76.78;98957.59;3030699;78;21607;-64
2020/12/11 13:12:41;;;;;;;75.35;40.38;;;;;;;6.29;76.74;98961.66;3031241;78;21116;-64
2020/12/11 13:16:45;;;;;;;67.27;39.73;;;;;;;6.29;76.91;98961.66;3031248;78;21109;-64
2020/12/11 13:20:49;;;;;;;137.62;73.28;;;;;;;6.31;77.02;98954.44;3070230;76;21109;-65
2020/12/11 13:29:27;;;;;;;177.27;87.27;;;;;;;6.29;77.33;98960.34;3068106;77;21174;-67
2020/12/11 13:33:33;;;;;;;249.42;133.67;;;;;;;6.28;77.28;98962.60;3051016;78;21162;-64
2020/12/11 13:37:49;;;;;;;173.05;96.67;;;;;;;6.28;77.34;98948.92;3003195;77;21139;-66
2020/12/11 13:42:02;;;;;;;117.35;70.65;;;;;;;6.27;77.43;98958.28;2966181;79;21612;-66
2020/12/11 13:46:07;;;;;;;104.97;64.53;;;;;;;6.26;77.36;98959.26;2995641;79;21135;-65
2020/12/11 13:50:11;;;;;;;99.37;66.83;;;;;;;6.27;77.21;98953.00;2995395;79;21138;-68
2020/12/11 13:54:15;;;;;;;169.82;101.45;;;;;;;6.25;77.14;98953.62;2995370;78;21281;-65
2020/12/11 13:58:18;;;;;;;143.15;87.08;;;;;;;6.26;77.11;98951.34;2995825;78;21175;-68
2020/12/11 14:02:22;;;;;;;137.37;79.20;;;;;;;6.26;77.00;98953.50;2995475;79;21115;-67
2020/12/11 14:06:30;;;;;;;225.97;135.95;;;;;;;6.26;76.83;98953.98;2995514;79;21143;-67
2020/12/11 14:36:14;;;;;;;126.90;78.30;;;;;;;6.18;75.66;98936.14;2753736;84;21201;-65
2020/12/11 14:40:17;;;;;;;122.47;71.92;;;;;;;6.04;75.93;98941.78;2665899;85;21208;-68
2020/12/11 14:44:20;;;;;;;106.78;65.35;;;;;;;5.91;76.28;98943.27;2694082;87;21190;-67
2020/12/11 14:48:24;;;;;;;68.25;41.80;;;;;;;5.80;76.48;98937.08;2738971;84;21188;-67
2020/12/11 14:52:27;;;;;;;58.25;39.50;;;;;;;5.70;76.74;98942.78;2762457;84;21178;-66
2020/12/11 14:56:38;;;;;;;65.32;39.90;;;;;;;5.55;77.05;98943.55;2760442;85;21162;-66
2020/12/11 15:00:44;;;;;;;85.17;54.53;;;;;;;5.40;77.42;98943.02;2740048;85;21240;-67
2020/12/11 15:04:47;;;;;;;83.27;52.90;;;;;;;5.29;77.97;98943.40;2730443;84;21164;-67
2020/12/11 15:08:50;;;;;;;66.55;45.25;;;;;;;5.21;78.40;98949.79;2757142;86;21225;-67
2020/12/11 15:12:53;;;;;;;70.15;43.75;;;;;;;5.15;78.61;98955.56;2778989;83;22278;-67
2020/12/11 15:16:56;;;;;;;67.55;41.25;;;;;;;5.07;78.79;98951.38;2741463;85;21145;-67
2020/12/11 15:20:59;;;;;;;57.95;33.88;;;;;;;4.95;78.92;98952.73;2769092;84;21743;-66
2020/12/11 15:25:03;;;;;;;66.37;39.05;;;;;;;4.83;79.02;98949.75;2724834;87;21744;-67
2020/12/11 15:29:07;;;;;;;76.47;49.90;;;;;;;4.75;79.33;98957.43;2770292;84;21586;-67
2020/12/11 15:33:10;;;;;;;59.63;39.92;;;;;;;4.73;79.33;98960.67;2763742;84;21176;-67
2020/12/11 15:37:15;;;;;;;63.90;42.53;;;;;;;4.62;79.34;98955.75;2781138;84;22503;-66
2020/12/11 15:41:18;;;;;;;76.20;46.50;;;;;;;4.53;79.77;98959.13;2778437;83;21199;-68
2020/12/11 15:45:22;;;;;;;106.83;63.45;;;;;;;4.49;80.24;98959.83;2785330;83;21203;-66
2020/12/11 15:49:25;;;;;;;107.07;62.10;;;;;;;4.45;81.05;98958.86;2789451;84;21197;-66
2020/12/11 15:53:29;;;;;;;102.60;59.18;;;;;;;4.54;81.54;98951.08;2787131;83;21635;-67
2020/12/11 15:57:32;;;;;;;84.30;50.60;;;;;;;4.62;81.65;98947.85;2784544;84;21633;-65
2020/12/11 16:01:34;;;;;;;80.75;52.33;;;;;;;4.65;82.01;98955.50;2783890;84;21212;-66
2020/12/11 16:05:37;;;;;;;70.92;43.95;;;;;;;4.74;82.26;98953.95;2785679;83;21199;-66
2020/12/11 16:09:41;;;;;;;79.58;51.95;;;;;;;4.74;82.56;98943.41;2746513;85;21667;-66
2020/12/11 16:13:45;;;;;;;55.43;33.55;;;;;;;4.78;82.89;98940.88;2749160;85;21121;-65
2020/12/11 16:17:48;;;;;;;59.50;35.65;;;;;;;4.81;83.26;98935.36;2761190;85;21231;-67
2020/12/11 16:21:52;;;;;;;48.02;28.45;;;;;;;4.88;83.32;98934.89;2736361;84;21530;-65
2020/12/11 16:25:55;;;;;;;49.60;32.73;;;;;;;5.04;83.19;98935.81;2732878;85;21617;-66
2020/12/11 16:29:58;;;;;;;45.10;33.70;;;;;;;5.11;83.00;98930.39;2715089;85;21148;-66
2020/12/11 16:34:03;;;;;;;40.90;26.70;;;;;;;5.18;82.80;98933.37;2766567;84;21183;-66
2020/12/11 16:38:06;;;;;;;49.25;32.53;;;;;;;5.26;82.74;98920.42;2786843;83;21205;-65
2020/12/11 16:42:09;;;;;;;46.33;27.45;;;;;;;5.32;82.38;98924.36;2742951;85;21193;-67
2020/12/11 16:46:14;;;;;;;49.00;32.90;;;;;;;5.37;81.93;98923.00;2746608;85;21146;-66
2020/12/11 16:50:22;;;;;;;54.30;36.17;;;;;;;5.37;81.75;98924.81;2750629;85;21201;-67
2020/12/11 16:54:21;;;;;;;58.10;37.98;;;;;;;5.35;81.62;98924.92;2746502;85;21567;-66
2020/12/11 16:58:24;;;;;;;36.65;26.93;;;;;;;5.42;81.42;98920.84;2730634;86;22473;-64
2020/12/11 17:02:38;;;;;;;39.45;27.37;;;;;;;5.43;81.08;98921.66;2767536;84;21192;-67
2020/12/11 17:10:38;;;;;;;38.63;25.65;;;;;;;5.44;81.00;98916.74;2757006;85;21159;-67
2020/12/11 17:14:41;;;;;;;37.53;23.38;;;;;;;5.48;81.01;98918.66;2756090;86;21268;-67
2020/12/11 17:18:44;;;;;;;44.58;27.02;;;;;;;5.48;80.73;98922.11;2749211;84;21141;-65
2020/12/11 17:22:47;;;;;;;34.90;25.32;;;;;;;5.40;80.87;98914.86;2765218;84;22288;-66
2020/12/11 17:26:53;;;;;;;47.90;27.42;;;;;;;5.39;80.97;98913.66;2713589;84;21223;-64
2020/12/11 17:31:01;;;;;;;52.43;28.00;;;;;;;5.41;81.04;98916.53;2767764;84;21213;-67
2020/12/11 17:35:06;;;;;;;40.03;26.62;;;;;;;5.44;80.82;98911.47;2798991;83;21495;-66
2020/12/11 17:39:05;;;;;;;37.98;24.92;;;;;;;5.34;80.93;98906.61;2777306;84;21175;-68
2020/12/11 17:43:09;;;;;;;37.10;25.90;;;;;;;5.23;81.21;98908.81;2783235;85;21204;-68
2020/12/11 17:47:14;;;;;;;45.52;26.57;;;;;;;5.22;81.40;98905.33;2782459;85;21201;-65
2020/12/11 17:51:17;;;;;;;45.75;28.80;;;;;;;5.16;81.61;98908.47;2782799;85;21256;-66
2020/12/11 17:55:20;;;;;;;45.98;31.07;;;;;;;5.12;81.75;98909.19;2766013;85;21665;-66
2020/12/11 17:59:23;;;;;;;48.33;33.55;;;;;;;5.13;81.77;98916.14;2691823;87;21262;-66
2020/12/11 18:03:26;;;;;;;46.77;32.38;;;;;;;5.15;81.66;98915.53;2746520;86;21173;-65
2020/12/11 18:07:29;;;;;;;48.08;28.60;;;;;;;5.15;81.64;98910.25;2685262;88;21188;-65
2020/12/11 18:11:34;;;;;;;39.67;24.30;;;;;;;5.18;81.55;98899.95;2734162;87;21210;-66
2020/12/11 18:15:37;;;;;;;49.90;27.67;;;;;;;5.23;81.34;98905.67;2760236;85;21141;-65
2020/12/11 18:19:40;;;;;;;56.73;31.20;;;;;;;5.25;81.26;98901.11;2732190;86;21187;-65
2020/12/11 18:23:43;;;;;;;50.05;32.33;;;;;;;5.22;81.24;98898.73;2685378;87;21195;-66
2020/12/11 18:27:49;;;;;;;48.38;29.77;;;;;;;5.17;81.43;98894.33;2732866;86;21195;-66
2020/12/11 18:31:52;;;;;;;43.13;24.85;;;;;;;5.12;81.62;98892.55;2765296;85;21207;-66
2020/12/11 18:35:57;;;;;;;57.88;31.68;;;;;;;5.07;81.89;98890.75;2687863;87;21193;-66
2020/12/11 18:40:00;;;;;;;66.57;39.50;;;;;;;5.06;81.92;98885.98;2690137;88;21289;-66
2020/12/11 18:44:03;;;;;;;58.52;33.88;;;;;;;5.16;81.70;98874.20;2689586;88;21226;-64
2020/12/11 18:48:06;;;;;;;48.13;30.57;;;;;;;5.17;81.47;98880.29;2688775;88;22343;-64
2020/12/11 18:52:09;;;;;;;61.92;35.52;;;;;;;5.13;81.45;98881.87;2689027;87;21198;-65
2020/12/11 19:00:53;;;;;;;41.63;27.67;;;;;;;5.12;81.46;98875.42;2996689;77;22960;-64
2020/12/11 19:04:56;;;;;;;112.55;62.95;;;;;;;5.15;81.41;98874.66;2950648;80;21149;-65
2020/12/11 19:08:59;;;;;;;53.90;30.30;;;;;;;5.20;81.24;98870.81;2950727;80;21619;-64
2020/12/11 19:13:04;;;;;;;65.32;40.88;;;;;;;5.16;81.31;98871.56;2950699;80;21138;-63
2020/12/11 19:17:28;;;;;;;98.92;54.38;;;;;;;5.14;81.36;98865.58;2930660;81;21267;-66
2020/12/11 19:21:33;;;;;;;122.60;64.25;;;;;;;5.15;81.56;98869.39;2930332;81;21171;-65
2020/12/11 19:25:36;;;;;;;145.75;85.03;;;;;;;5.17;81.55;98867.96;2930536;81;21136;-66
2020/12/11 19:29:38;;;;;;;56.98;38.70;;;;;;;5.21;81.53;98873.33;2930240;81;22238;-65
2020/12/11 19:33:42;;;;;;;50.55;29.85;;;;;;;5.26;81.23;98867.19;2930389;81;21609;-66
2020/12/11 19:37:45;;;;;;;66.40;35.98;;;;;;;5.19;81.33;98862.08;2933306;81;21626;-66
2020/12/11 19:41:48;;;;;;;55.08;34.08;;;;;;;5.14;81.65;98865.08;2882287;82;21157;-65
2020/12/11 19:45:52;;;;;;;47.60;35.03;;;;;;;5.16;81.68;98868.92;2881832;82;21599;-64
2020/12/11 19:49:55;;;;;;;46.55;29.23;;;;;;;5.26;81.65;98861.91;2882031;81;21180;-66
2020/12/11 19:53:58;;;;;;;45.60;29.27;;;;;;;5.37;81.52;98853.61;2881624;82;21603;-65
2020/12/11 19:58:02;;;;;;;39.42;25.77;;;;;;;5.46;80.98;98851.51;2881759;82;21165;-65
2020/12/11 20:02:06;;;;;;;37.03;26.40;;;;;;;5.50;80.67;98842.41;2881929;82;21165;-67
2020/12/11 20:06:14;;;;;;;52.50;31.75;;;;;;;5.51;80.47;98840.12;2881682;82;21172;-64
2020/12/11 20:10:14;;;;;;;42.65;32.00;;;;;;;5.51;80.29;98840.12;2881032;82;21149;-65
2020/12/11 20:14:19;;;;;;;51.42;30.32;;;;;;;5.40;80.60;98844.13;2880927;82;21117;-66
2020/12/11 20:18:22;;;;;;;53.65;32.80;;;;;;;5.41;80.75;98849.75;2881658;82;21173;-65
2020/12/11 20:22:25;;;;;;;64.67;36.75;;;;;;;5.39;80.77;98840.63;2882019;82;21169;-67
2020/12/11 20:26:29;;;;;;;56.23;34.20;;;;;;;5.38;80.84;98836.83;2881498;82;21153;-66
2020/12/11 20:30:32;;;;;;;67.95;38.10;;;;;;;5.34;80.94;98842.01;2881438;82;21188;-65